createdAt,value
2019-03-08T00:00:33.757Z,4.08
2019-03-08T00:03:02.607Z,5.00
2019-03-08T00:05:31.207Z,5.50
2019-03-08T00:07:59.730Z,6.40
2019-03-08T00:10:28.446Z,6.03
2019-03-08T00:12:57.047Z,6.23
2019-03-08T00:15:26.454Z,5.67
2019-03-08T00:17:55.243Z,6.15
2019-03-08T00:20:23.772Z,6.65
2019-03-08T00:22:52.297Z,6.75
2019-03-08T00:25:20.942Z,6.95
2019-03-08T00:27:49.614Z,6.80
2019-03-08T00:30:18.283Z,6.80
2019-03-08T00:32:46.846Z,5.97
2019-03-08T00:35:15.460Z,6.90
2019-03-08T00:37:43.989Z,5.45
2019-03-08T00:40:14.029Z,5.20
2019-03-08T00:42:42.686Z,6.10
2019-03-08T00:45:18.014Z,5.80
2019-03-08T00:47:46.606Z,5.70
2019-03-08T00:50:15.213Z,5.55
2019-03-08T00:52:43.765Z,5.53
2019-03-08T00:55:13.539Z,5.87
2019-03-08T00:57:42.640Z,5.70
2019-03-08T01:00:19.939Z,5.65
2019-03-08T01:02:48.604Z,5.47
2019-03-08T01:05:17.571Z,5.62
2019-03-08T01:07:46.268Z,5.83
2019-03-08T01:10:20.413Z,5.00
2019-03-08T01:12:49.116Z,4.87
2019-03-08T01:15:18.222Z,4.97
2019-03-08T01:17:47.655Z,5.05
2019-03-08T01:20:18.130Z,4.80
2019-03-08T01:22:46.860Z,4.45
2019-03-08T01:25:15.622Z,4.43
2019-03-08T01:28:10.204Z,4.22
2019-03-08T01:30:40.259Z,4.65
2019-03-08T01:33:08.958Z,3.83
2019-03-08T01:35:37.752Z,3.97
2019-03-08T01:38:06.414Z,4.67
2019-03-08T01:40:35.006Z,4.28
2019-03-08T01:43:04.011Z,3.77
2019-03-08T01:45:32.602Z,4.92
2019-03-08T01:48:01.377Z,4.30
2019-03-08T01:50:30.090Z,3.83
2019-03-08T01:52:58.688Z,3.73
2019-03-08T01:55:27.286Z,3.30
2019-03-08T01:57:55.916Z,3.55
2019-03-08T02:00:24.588Z,3.92
2019-03-08T02:02:53.259Z,4.62
2019-03-08T02:05:22.378Z,3.40
2019-03-08T02:07:51.039Z,3.80
2019-03-08T02:10:19.711Z,4.55
2019-03-08T02:12:48.263Z,3.75
2019-03-08T02:15:18.233Z,3.15
2019-03-08T02:17:46.763Z,3.62
2019-03-08T02:20:18.749Z,3.45
2019-03-08T02:22:47.343Z,3.72
2019-03-08T02:25:16.006Z,3.12
2019-03-08T02:27:44.986Z,3.67
2019-03-08T02:30:15.534Z,4.22
2019-03-08T02:32:44.388Z,4.40
2019-03-08T02:35:13.687Z,4.35
2019-03-08T02:37:42.292Z,5.15
2019-03-08T02:40:30.697Z,4.90
2019-03-08T02:42:59.867Z,4.20
2019-03-08T02:45:28.455Z,4.37
2019-03-08T02:47:57.089Z,4.20
2019-03-08T02:50:25.852Z,4.40
2019-03-08T02:52:54.366Z,3.83
2019-03-08T02:55:23.015Z,4.05
2019-03-08T02:57:51.980Z,3.08
2019-03-08T03:00:20.655Z,4.03
2019-03-08T03:02:49.320Z,3.77
2019-03-08T03:05:17.983Z,4.30
2019-03-08T03:07:46.658Z,4.12
2019-03-08T03:10:15.282Z,3.98
2019-03-08T03:12:43.815Z,3.92
2019-03-08T03:15:14.293Z,4.35
2019-03-08T03:17:42.916Z,3.98
2019-03-08T03:20:13.576Z,3.85
2019-03-08T03:22:42.159Z,3.75
2019-03-08T03:25:15.554Z,3.70
2019-03-08T03:27:44.159Z,4.00
2019-03-08T03:30:15.698Z,4.30
2019-03-08T03:32:44.336Z,3.87
2019-03-08T03:35:12.968Z,4.20
2019-03-08T03:37:41.535Z,3.75
2019-03-08T03:40:12.499Z,4.00
2019-03-08T03:42:41.096Z,4.45
2019-03-08T03:45:12.169Z,4.78
2019-03-08T03:47:40.876Z,7.60
2019-03-08T03:50:11.345Z,8.93
2019-03-08T03:52:40.145Z,6.00
2019-03-08T03:55:11.446Z,6.83
2019-03-08T03:57:39.985Z,5.20
2019-03-08T04:00:14.333Z,5.40
2019-03-08T04:02:42.973Z,5.25
2019-03-08T04:05:11.931Z,4.80
2019-03-08T04:07:40.527Z,4.50
2019-03-08T04:10:12.065Z,4.90
2019-03-08T04:12:40.722Z,5.50
2019-03-08T04:15:12.260Z,4.92
2019-03-08T04:17:40.823Z,5.83
2019-03-08T04:20:12.089Z,5.17
2019-03-08T04:22:40.686Z,5.30
2019-03-08T04:25:10.977Z,4.72
2019-03-08T04:27:39.527Z,4.97
2019-03-08T04:30:11.195Z,5.33
2019-03-08T04:32:39.863Z,4.90
2019-03-08T04:35:08.478Z,5.47
2019-03-08T04:37:36.998Z,5.25
2019-03-08T04:40:08.618Z,4.72
2019-03-08T04:42:37.139Z,5.12
2019-03-08T04:45:08.543Z,6.08
2019-03-08T04:47:37.093Z,7.65
2019-03-08T04:50:07.869Z,10.38
2019-03-08T04:52:36.411Z,11.85
2019-03-08T04:55:08.307Z,7.70
2019-03-08T04:57:36.916Z,6.92
2019-03-08T05:00:09.231Z,6.27
2019-03-08T05:02:37.787Z,5.00
2019-03-08T05:05:06.769Z,6.22
2019-03-08T05:07:35.541Z,6.05
2019-03-08T05:10:06.804Z,5.63
2019-03-08T05:12:35.256Z,5.62
2019-03-08T05:15:04.823Z,5.80
2019-03-08T05:17:33.332Z,6.12
2019-03-08T05:20:01.924Z,6.12
2019-03-08T05:22:30.454Z,5.95
2019-03-08T05:24:59.103Z,6.08
2019-03-08T05:27:28.358Z,6.28
2019-03-08T05:29:56.890Z,5.60
2019-03-08T05:32:25.458Z,5.70
2019-03-08T05:34:53.984Z,5.83
2019-03-08T05:37:22.511Z,6.10
2019-03-08T05:39:51.082Z,5.92
2019-03-08T05:42:19.612Z,6.10
2019-03-08T05:44:48.143Z,6.80
2019-03-08T05:47:16.710Z,7.15
2019-03-08T05:49:45.302Z,7.35
2019-03-08T05:52:13.842Z,6.55
2019-03-08T05:54:42.404Z,6.90
2019-03-08T05:57:10.926Z,7.37
2019-03-08T05:59:39.465Z,5.65
2019-03-08T06:02:08.044Z,6.53
2019-03-08T06:04:36.584Z,6.78
2019-03-08T06:07:05.115Z,5.12
2019-03-08T06:09:33.875Z,5.55
2019-03-08T06:12:02.376Z,5.53
2019-03-08T06:14:31.219Z,4.60
2019-03-08T06:16:59.780Z,4.60
2019-03-08T06:19:28.313Z,4.90
2019-03-08T06:21:56.912Z,5.17
2019-03-08T06:24:25.665Z,4.58
2019-03-08T06:26:54.280Z,4.87
2019-03-08T06:29:23.836Z,5.00
2019-03-08T06:31:52.406Z,4.47
2019-03-08T06:34:20.940Z,5.65
2019-03-08T06:36:49.472Z,5.03
2019-03-08T06:39:18.051Z,5.85
2019-03-08T06:41:46.639Z,5.97
2019-03-08T06:44:15.095Z,6.03
2019-03-08T06:46:43.953Z,5.80
2019-03-08T06:49:12.704Z,5.80
2019-03-08T06:51:41.412Z,5.57
2019-03-08T06:54:10.040Z,5.12
2019-03-08T06:56:38.578Z,5.20
2019-03-08T06:59:11.224Z,6.10
2019-03-08T07:01:45.693Z,5.28
2019-03-08T07:04:14.279Z,5.90
2019-03-08T07:06:42.912Z,6.17
2019-03-08T07:09:19.471Z,6.05
2019-03-08T07:11:48.284Z,6.75
2019-03-08T07:14:16.820Z,6.67
2019-03-08T07:16:45.701Z,5.83
2019-03-08T07:19:14.213Z,5.90
2019-03-08T07:21:44.375Z,6.00
2019-03-08T07:24:14.662Z,6.33
2019-03-08T07:26:45.192Z,6.22
2019-03-08T07:29:21.579Z,7.25
2019-03-08T07:32:00.736Z,6.42
2019-03-08T07:34:33.785Z,5.33
2019-03-08T07:37:13.057Z,5.60
2019-03-08T07:39:45.819Z,5.00
2019-03-08T07:42:21.692Z,4.50
2019-03-08T07:45:07.981Z,5.17
2019-03-08T07:47:56.331Z,4.65
2019-03-08T07:50:32.708Z,4.17
2019-03-08T07:53:08.983Z,4.10
2019-03-08T07:55:58.206Z,4.17
2019-03-08T07:58:33.925Z,4.42
2019-03-08T08:01:12.122Z,4.10
2019-03-08T08:04:07.644Z,4.15
2019-03-08T08:06:52.955Z,4.53
2019-03-08T08:09:28.758Z,4.00
2019-03-08T08:12:04.766Z,3.40
2019-03-08T08:14:51.470Z,4.22
2019-03-08T08:17:21.673Z,4.40
2019-03-08T08:20:16.167Z,3.95
2019-03-08T08:22:42.927Z,3.80
2019-03-08T08:25:47.532Z,4.47
2019-03-08T08:28:17.903Z,4.20
2019-03-08T08:30:57.400Z,4.03
2019-03-08T08:33:39.619Z,3.40
2019-03-08T08:36:09.800Z,3.50
2019-03-08T08:38:42.940Z,3.20
2019-03-08T08:41:29.584Z,3.77
2019-03-08T08:43:59.758Z,3.60
2019-03-08T08:46:30.151Z,3.10
2019-03-08T08:49:12.876Z,3.10
2019-03-08T08:51:55.075Z,3.33
2019-03-08T08:54:41.324Z,2.80
2019-03-08T08:57:17.700Z,2.83
2019-03-08T08:59:50.835Z,2.95
2019-03-08T09:02:20.935Z,2.77
2019-03-08T09:04:53.561Z,3.40
2019-03-08T09:07:26.611Z,2.95
2019-03-08T09:09:59.551Z,3.33
2019-03-08T09:12:47.671Z,3.30
2019-03-08T09:15:23.972Z,3.17
2019-03-08T09:18:09.648Z,3.40
2019-03-08T09:20:56.422Z,3.30
2019-03-08T09:23:32.612Z,2.60
2019-03-08T09:26:02.778Z,3.12
2019-03-08T09:28:36.046Z,2.25
2019-03-08T09:31:06.341Z,2.87
2019-03-08T09:33:36.897Z,3.00
2019-03-08T09:36:12.967Z,3.08
2019-03-08T09:38:43.162Z,2.80
2019-03-08T09:41:22.454Z,2.60
2019-03-08T09:46:34.503Z,2.33
2019-03-08T09:49:16.875Z,3.00
2019-03-08T09:51:47.226Z,2.60
2019-03-08T09:54:18.304Z,2.37
2019-03-08T09:56:48.583Z,3.02
2019-03-08T09:59:24.248Z,2.15
2019-03-08T10:01:57.104Z,2.72
2019-03-08T10:04:27.547Z,2.80
2019-03-08T10:07:00.442Z,2.12
2019-03-08T10:09:30.670Z,2.30
2019-03-08T10:12:00.874Z,2.67
2019-03-08T10:14:31.098Z,2.22
2019-03-08T10:17:01.463Z,2.25
2019-03-08T10:19:48.028Z,1.95
2019-03-08T10:22:18.207Z,2.42
2019-03-08T10:25:04.903Z,2.20
2019-03-08T10:27:53.689Z,2.27
2019-03-08T10:30:40.191Z,1.65
2019-03-08T10:33:25.479Z,1.60
2019-03-08T10:36:11.169Z,1.85
2019-03-08T10:38:41.605Z,1.82
2019-03-08T10:41:18.122Z,2.42
2019-03-08T10:43:54.135Z,1.87
2019-03-08T10:46:24.407Z,3.75
2019-03-08T10:49:11.059Z,2.00
2019-03-08T10:51:44.009Z,2.70
2019-03-08T10:54:29.446Z,2.20
2019-03-08T10:57:02.995Z,2.25
2019-03-08T10:59:45.484Z,1.70
2019-03-08T11:02:21.207Z,1.10
2019-03-08T11:05:06.848Z,2.75
2019-03-08T11:07:39.478Z,1.90
2019-03-08T11:10:12.863Z,2.10
2019-03-08T11:12:59.490Z,1.67
2019-03-08T11:15:35.695Z,2.20
2019-03-08T11:18:08.916Z,1.92
2019-03-08T11:20:46.432Z,2.17
2019-03-08T11:23:19.879Z,2.70
2019-03-08T11:26:06.540Z,1.60
2019-03-08T11:28:45.502Z,1.57
2019-03-08T11:31:31.897Z,2.08
2019-03-08T11:34:02.137Z,1.98
2019-03-08T11:36:35.022Z,2.80
2019-03-08T11:39:12.586Z,2.60
2019-03-08T11:41:42.844Z,2.87
2019-03-08T11:44:13.016Z,1.80
2019-03-08T11:46:43.229Z,1.87
2019-03-08T11:49:19.173Z,2.10
2019-03-08T11:51:55.581Z,3.50
2019-03-08T11:54:25.757Z,2.40
2019-03-08T11:57:11.263Z,2.62
2019-03-08T11:59:41.392Z,2.00
2019-03-08T12:02:20.530Z,2.12
2019-03-08T12:05:05.783Z,2.90
2019-03-08T12:07:35.983Z,2.08
2019-03-08T12:10:25.093Z,2.10
2019-03-08T12:12:55.295Z,2.60
2019-03-08T12:15:41.454Z,2.33
2019-03-08T12:18:27.792Z,1.90
2019-03-08T12:21:06.779Z,1.87
2019-03-08T12:23:52.263Z,1.92
2019-03-08T12:26:22.581Z,2.42
2019-03-08T12:28:52.719Z,1.98
2019-03-08T12:31:41.096Z,2.20
2019-03-08T12:34:26.215Z,2.12
2019-03-08T12:36:59.199Z,1.98
2019-03-08T12:39:29.807Z,2.08
2019-03-08T12:42:06.196Z,2.10
2019-03-08T12:44:36.425Z,1.80
2019-03-08T12:47:22.737Z,1.80
2019-03-08T12:50:09.240Z,2.00
2019-03-08T12:52:45.201Z,2.33
2019-03-08T12:55:30.868Z,2.85
2019-03-08T12:58:01.181Z,2.22
2019-03-08T13:00:49.425Z,1.87
2019-03-08T13:03:36.006Z,2.20
2019-03-08T13:06:12.058Z,2.30
2019-03-08T13:08:45.183Z,2.02
2019-03-08T13:11:13.650Z,1.92
2019-03-08T13:13:42.167Z,2.17
2019-03-08T13:16:11.044Z,2.77
2019-03-08T13:18:39.650Z,2.43
2019-03-08T13:21:08.195Z,2.25
2019-03-08T13:23:37.002Z,2.08
2019-03-08T13:26:05.686Z,2.60
2019-03-08T13:28:34.297Z,2.70
2019-03-08T13:31:03.065Z,1.92
2019-03-08T13:33:31.678Z,3.25
2019-03-08T13:36:00.248Z,2.47
2019-03-08T13:38:28.941Z,2.00
2019-03-08T13:40:59.059Z,2.10
2019-03-08T13:43:27.760Z,2.35
2019-03-08T13:45:56.686Z,1.85
2019-03-08T13:48:25.211Z,1.97
2019-03-08T13:50:53.749Z,2.42
2019-03-08T13:53:22.383Z,2.87
2019-03-08T13:55:50.987Z,2.27
2019-03-08T13:58:19.518Z,2.10
2019-03-08T14:00:48.301Z,2.43
2019-03-08T14:03:16.870Z,2.77
2019-03-08T14:05:45.421Z,2.10
2019-03-08T14:08:13.983Z,2.42
2019-03-08T14:10:42.458Z,2.20
2019-03-08T14:13:11.072Z,2.67
2019-03-08T14:15:39.828Z,3.20
2019-03-08T14:18:08.363Z,2.55
2019-03-08T14:20:37.040Z,2.30
2019-03-08T14:23:05.757Z,3.67
2019-03-08T14:25:34.283Z,2.70
2019-03-08T14:28:02.891Z,2.90
2019-03-08T14:30:45.228Z,2.17
2019-03-08T14:33:16.841Z,2.25
2019-03-08T14:35:45.471Z,2.17
2019-03-08T14:38:14.026Z,2.15
2019-03-08T14:40:44.581Z,2.83
2019-03-08T14:43:31.334Z,2.80
2019-03-08T14:48:54.910Z,3.62
2019-03-08T14:51:26.317Z,2.70
2019-03-08T14:53:54.853Z,2.77
2019-03-08T14:56:23.491Z,3.15
2019-03-08T14:58:51.953Z,3.08
2019-03-08T15:01:20.557Z,3.60
2019-03-08T15:03:49.123Z,3.45
2019-03-08T15:06:17.657Z,4.83
2019-03-08T15:08:46.407Z,4.05
2019-03-08T15:11:15.041Z,3.90
2019-03-08T15:13:43.815Z,4.47
2019-03-08T15:16:12.411Z,6.35
2019-03-08T15:18:40.988Z,6.33
2019-03-08T15:21:09.585Z,7.05
2019-03-08T15:23:38.247Z,6.83
2019-03-08T15:26:06.946Z,7.33
2019-03-08T15:28:35.480Z,8.13
2019-03-08T15:31:04.156Z,6.42
2019-03-08T15:33:32.735Z,4.37
2019-03-08T15:36:01.341Z,5.50
2019-03-08T15:38:30.650Z,5.25
2019-03-08T15:40:59.525Z,5.95
2019-03-08T15:43:28.214Z,5.70
2019-03-08T15:45:57.068Z,5.53
2019-03-08T15:48:25.711Z,6.40
2019-03-08T15:50:54.259Z,6.97
2019-03-08T15:53:22.789Z,6.92
2019-03-08T15:55:53.175Z,6.83
2019-03-08T15:58:21.807Z,7.00
2019-03-08T16:00:50.365Z,7.53
2019-03-08T16:03:18.991Z,9.55
2019-03-08T16:05:47.594Z,8.50
2019-03-08T16:08:16.191Z,11.45
2019-03-08T16:10:44.687Z,9.50
2019-03-08T16:13:13.366Z,7.53
2019-03-08T16:15:41.939Z,6.58
2019-03-08T16:18:10.471Z,8.03
2019-03-08T16:20:39.376Z,7.72
2019-03-08T16:23:08.504Z,6.42
2019-03-08T16:25:41.044Z,6.22
2019-03-08T16:28:07.344Z,7.42
2019-03-08T16:30:39.739Z,7.87
2019-03-08T16:33:31.814Z,6.80
2019-03-08T16:36:10.985Z,7.75
2019-03-08T16:38:43.812Z,6.90
2019-03-08T16:41:30.073Z,8.80
2019-03-08T16:44:06.196Z,7.58
2019-03-08T16:46:42.229Z,8.13
2019-03-08T16:49:24.208Z,7.08
2019-03-08T16:52:10.490Z,8.15
2019-03-08T16:54:56.767Z,6.35
2019-03-08T16:57:26.890Z,5.30
2019-03-08T17:00:00.031Z,5.65
2019-03-08T17:02:36.104Z,5.90
2019-03-08T17:05:10.238Z,6.60
2019-03-08T17:07:48.983Z,6.00
2019-03-08T17:10:19.148Z,7.57
2019-03-08T17:12:55.171Z,7.97
2019-03-08T17:15:25.355Z,9.05
2019-03-08T17:18:04.516Z,8.23
2019-03-08T17:20:50.943Z,7.55
2019-03-08T17:23:37.427Z,7.85
2019-03-08T17:26:13.337Z,6.83
2019-03-08T17:29:00.043Z,7.35
2019-03-08T17:31:30.299Z,8.23
2019-03-08T17:34:09.733Z,8.48
2019-03-08T17:36:49.121Z,10.20
2019-03-08T17:39:19.417Z,10.75
2019-03-08T17:41:55.344Z,11.18
2019-03-08T17:44:31.944Z,11.97
2019-03-08T17:47:18.245Z,12.40
2019-03-08T17:50:03.548Z,14.00
2019-03-08T17:52:40.144Z,14.13
2019-03-08T17:55:22.711Z,14.23
2019-03-08T17:57:52.892Z,12.65
2019-03-08T18:00:23.132Z,12.55
2019-03-08T18:03:09.654Z,12.45
2019-03-08T18:05:39.901Z,12.15
2019-03-08T18:08:28.106Z,13.05
2019-03-08T18:11:03.774Z,12.65
2019-03-08T18:13:33.919Z,10.90
2019-03-08T18:16:04.266Z,11.55
2019-03-08T18:18:34.527Z,12.37
2019-03-08T18:21:10.792Z,11.38
2019-03-08T18:23:40.977Z,12.28
2019-03-08T18:26:11.095Z,11.97
2019-03-08T18:28:43.887Z,13.35
2019-03-08T18:31:16.836Z,14.05
2019-03-08T18:33:46.978Z,11.83
2019-03-08T18:36:17.257Z,12.82
2019-03-08T18:38:47.893Z,12.58
2019-03-08T18:41:34.266Z,11.65
2019-03-08T18:44:07.163Z,10.80
2019-03-08T18:46:49.348Z,11.08
2019-03-08T18:49:28.478Z,9.83
2019-03-08T18:52:02.112Z,9.88
2019-03-08T18:54:32.578Z,8.60
2019-03-08T18:57:02.820Z,8.68
2019-03-08T18:59:35.843Z,8.93
2019-03-08T19:02:06.093Z,7.20
2019-03-08T19:04:36.263Z,6.80
2019-03-08T19:07:36.687Z,8.40
2019-03-08T19:10:10.100Z,7.83
2019-03-08T19:12:40.239Z,8.28
2019-03-08T19:15:15.175Z,9.60
2019-03-08T19:17:51.744Z,10.20
2019-03-08T19:20:22.052Z,10.25
2019-03-08T19:23:08.811Z,11.33
2019-03-08T19:25:50.885Z,10.50
2019-03-08T19:28:27.282Z,10.82
2019-03-08T19:31:00.239Z,12.03
2019-03-08T19:33:30.404Z,10.25
2019-03-08T19:36:06.463Z,10.25
2019-03-08T19:38:39.944Z,10.23
2019-03-08T19:41:48.016Z,10.55
2019-03-08T19:44:34.788Z,10.08
2019-03-08T19:47:05.067Z,10.10
2019-03-08T19:49:38.300Z,10.00
2019-03-08T19:52:08.524Z,12.37
2019-03-08T19:54:51.184Z,13.28
2019-03-08T19:57:36.252Z,13.43
2019-03-08T20:00:18.366Z,7.03
2019-03-08T20:02:48.556Z,6.92
2019-03-08T20:05:34.186Z,5.37
2019-03-08T20:08:22.356Z,6.03
2019-03-08T20:11:09.167Z,6.90
2019-03-08T20:13:39.340Z,6.03
2019-03-08T20:16:09.708Z,5.55
2019-03-08T20:21:27.695Z,6.10
2019-03-08T20:23:57.886Z,6.92
2019-03-08T20:26:28.526Z,7.22
2019-03-08T20:29:07.882Z,7.15
2019-03-08T20:31:38.040Z,7.42
2019-03-08T20:34:17.393Z,7.12
2019-03-08T20:36:56.686Z,6.58
2019-03-08T20:39:34.373Z,7.42
2019-03-08T20:42:07.543Z,7.95
2019-03-08T20:44:46.388Z,7.65
2019-03-08T20:47:22.720Z,8.70
2019-03-08T20:49:51.296Z,9.05
2019-03-08T20:52:20.123Z,8.88
2019-03-08T20:54:48.792Z,9.43
2019-03-08T20:57:17.506Z,9.63
2019-03-08T20:59:46.075Z,9.87
2019-03-08T21:02:14.770Z,9.38
2019-03-08T21:04:43.403Z,8.75
2019-03-08T21:07:31.301Z,9.08
2019-03-08T21:09:59.862Z,9.00
2019-03-08T21:12:28.493Z,8.65
2019-03-08T21:14:57.062Z,8.48
2019-03-08T21:17:25.562Z,10.32
2019-03-08T21:19:54.019Z,11.88
2019-03-08T21:22:41.864Z,13.10
2019-03-08T21:25:14.846Z,13.72
2019-03-08T21:27:43.377Z,15.70
2019-03-08T21:30:17.822Z,14.03
2019-03-08T21:32:46.492Z,15.30
2019-03-08T21:35:15.192Z,14.25
2019-03-08T21:37:44.124Z,15.38
2019-03-08T21:40:13.615Z,12.82
2019-03-08T21:42:42.216Z,12.95
2019-03-08T21:45:15.691Z,13.48
2019-03-08T21:47:44.368Z,13.32
2019-03-08T21:50:17.399Z,14.87
2019-03-08T21:52:45.957Z,14.68
2019-03-08T21:55:14.560Z,14.68
2019-03-08T21:57:43.228Z,13.22
2019-03-08T22:00:23.540Z,13.95
2019-03-08T22:02:52.815Z,11.90
2019-03-08T22:05:23.160Z,9.60
2019-03-08T22:07:51.724Z,8.63
2019-03-08T22:10:21.979Z,10.03
2019-03-08T22:12:50.431Z,9.83
2019-03-08T22:15:19.153Z,11.15
2019-03-08T22:17:47.685Z,10.57
2019-03-08T22:20:16.283Z,9.15
2019-03-08T22:22:44.847Z,7.97
2019-03-08T22:25:13.665Z,8.30
2019-03-08T22:27:42.413Z,9.63
2019-03-08T22:30:19.102Z,9.33
2019-03-08T22:32:47.629Z,8.50
2019-03-08T22:35:16.079Z,10.68
2019-03-08T22:37:44.840Z,10.08
2019-03-08T22:40:13.452Z,9.70
2019-03-08T22:42:41.996Z,9.08
2019-03-08T22:45:12.492Z,9.80
2019-03-08T22:47:41.091Z,8.08
2019-03-08T22:50:14.664Z,7.87
2019-03-08T22:52:43.286Z,7.72
2019-03-08T22:55:13.779Z,7.62
2019-03-08T22:57:42.327Z,7.87
2019-03-08T23:00:27.354Z,7.65
2019-03-08T23:02:55.893Z,7.83
2019-03-08T23:05:25.107Z,8.55
2019-03-08T23:07:54.031Z,8.70
2019-03-08T23:10:22.699Z,8.38
2019-03-08T23:12:51.154Z,8.30
2019-03-08T23:15:20.049Z,9.03
2019-03-08T23:17:48.574Z,10.75
2019-03-08T23:20:17.099Z,10.80
2019-03-08T23:22:45.665Z,10.70
2019-03-08T23:25:14.210Z,11.15
2019-03-08T23:27:47.344Z,10.80
2019-03-08T23:30:20.189Z,9.30
2019-03-08T23:32:48.787Z,9.55
2019-03-08T23:35:17.382Z,9.23
2019-03-08T23:37:45.871Z,9.15
2019-03-08T23:40:33.955Z,10.13
2019-03-08T23:43:02.519Z,9.93
2019-03-08T23:45:30.989Z,9.85
2019-03-08T23:48:00.495Z,11.68
2019-03-08T23:50:29.060Z,11.25
2019-03-08T23:52:57.640Z,12.43
2019-03-08T23:55:26.211Z,11.80
2019-03-08T23:57:54.776Z,14.63
